sensor_id;sensor_type;location;lat;lon;timestamp;temperature;humidity
10155;DHT22;5118;48.570;7.916;2022-09-14T00:01:35;22.40;99.90
10155;DHT22;5118;48.570;7.916;2022-09-14T00:04:09;22.50;99.90
10155;DHT22;5118;48.570;7.916;2022-09-14T00:06:40;22.50;99.90
10155;DHT22;5118;48.570;7.916;2022-09-14T00:09:13;22.50;99.90
10155;DHT22;5118;48.570;7.916;2022-09-14T00:11:42;22.40;99.90
10155;DHT22;5118;48.570;7.916;2022-09-14T00:14:10;22.40;99.90
10155;DHT22;5118;48.570;7.916;2022-09-14T00:16:40;22.40;99.90
10155;DHT22;5118;48.570;7.916;2022-09-14T00:19:15;22.40;99.90
10155;DHT22;5118;48.570;7.916;2022-09-14T00:21:49;22.30;99.90
10155;DHT22;5118;48.570;7.916;2022-09-14T00:24:18;22.30;99.90
10155;DHT22;5118;48.570;7.916;2022-09-14T00:26:46;22.20;99.90
10155;DHT22;5118;48.570;7.916;2022-09-14T00:29:15;22.20;99.90
10155;DHT22;5118;48.570;7.916;2022-09-14T00:31:43;22.10;99.90
10155;DHT22;5118;48.570;7.916;2022-09-14T00:34:13;22.00;99.90
10155;DHT22;5118;48.570;7.916;2022-09-14T00:36:45;21.90;99.90
10155;DHT22;5118;48.570;7.916;2022-09-14T00:39:15;21.90;99.90
10155;DHT22;5118;48.570;7.916;2022-09-14T00:41:46;21.70;99.90
10155;DHT22;5118;48.570;7.916;2022-09-14T00:44:56;21.40;99.90
10155;DHT22;5118;48.570;7.916;2022-09-14T00:47:25;21.20;99.90
10155;DHT22;5118;48.570;7.916;2022-09-14T00:49:53;21.00;99.90
10155;DHT22;5118;48.570;7.916;2022-09-14T00:52:25;20.90;99.90
10155;DHT22;5118;48.570;7.916;2022-09-14T00:54:56;20.70;99.90
10155;DHT22;5118;48.570;7.916;2022-09-14T00:57:27;20.60;99.90
10155;DHT22;5118;48.570;7.916;2022-09-14T00:59:56;20.60;99.90
10155;DHT22;5118;48.570;7.916;2022-09-14T01:02:26;20.50;99.90
10155;DHT22;5118;48.570;7.916;2022-09-14T01:04:55;20.50;99.90
10155;DHT22;5118;48.570;7.916;2022-09-14T01:07:45;20.50;99.90
10155;DHT22;5118;48.570;7.916;2022-09-14T01:10:27;20.50;99.90
10155;DHT22;5118;48.570;7.916;2022-09-14T01:13:07;20.50;99.90
10155;DHT22;5118;48.570;7.916;2022-09-14T01:15:43;20.50;99.90
10155;DHT22;5118;48.570;7.916;2022-09-14T01:18:17;20.50;99.90
10155;DHT22;5118;48.570;7.916;2022-09-14T01:20:54;20.60;99.90
10155;DHT22;5118;48.570;7.916;2022-09-14T01:23:29;20.60;99.90
10155;DHT22;5118;48.570;7.916;2022-09-14T01:26:21;20.70;99.90
10155;DHT22;5118;48.570;7.916;2022-09-14T01:28:57;20.70;99.90
10155;DHT22;5118;48.570;7.916;2022-09-14T01:31:29;20.70;99.90
10155;DHT22;5118;48.570;7.916;2022-09-14T01:34:06;20.70;99.90
10155;DHT22;5118;48.570;7.916;2022-09-14T01:36:37;20.70;99.90
10155;DHT22;5118;48.570;7.916;2022-09-14T01:39:06;20.70;99.90
10155;DHT22;5118;48.570;7.916;2022-09-14T01:41:36;20.60;99.90
10155;DHT22;5118;48.570;7.916;2022-09-14T01:44:12;20.60;99.90
10155;DHT22;5118;48.570;7.916;2022-09-14T01:46:43;20.50;99.90
10155;DHT22;5118;48.570;7.916;2022-09-14T01:49:15;20.40;99.90
10155;DHT22;5118;48.570;7.916;2022-09-14T01:51:47;20.40;99.90
10155;DHT22;5118;48.570;7.916;2022-09-14T01:54:19;20.30;99.90
10155;DHT22;5118;48.570;7.916;2022-09-14T01:56:53;20.30;99.90
10155;DHT22;5118;48.570;7.916;2022-09-14T01:59:26;20.30;99.90
10155;DHT22;5118;48.570;7.916;2022-09-14T02:01:58;20.30;99.90
10155;DHT22;5118;48.570;7.916;2022-09-14T02:04:44;20.30;99.90
10155;DHT22;5118;48.570;7.916;2022-09-14T02:07:14;20.40;99.90
10155;DHT22;5118;48.570;7.916;2022-09-14T02:09:43;20.40;99.90
10155;DHT22;5118;48.570;7.916;2022-09-14T02:12:13;20.40;99.90
10155;DHT22;5118;48.570;7.916;2022-09-14T02:14:44;20.40;99.90
10155;DHT22;5118;48.570;7.916;2022-09-14T02:17:13;20.40;99.90
10155;DHT22;5118;48.570;7.916;2022-09-14T02:19:45;20.50;99.90
10155;DHT22;5118;48.570;7.916;2022-09-14T02:22:15;20.40;99.90
10155;DHT22;5118;48.570;7.916;2022-09-14T02:24:43;20.50;99.90
10155;DHT22;5118;48.570;7.916;2022-09-14T02:27:11;20.50;99.90
10155;DHT22;5118;48.570;7.916;2022-09-14T02:29:40;20.50;99.90
10155;DHT22;5118;48.570;7.916;2022-09-14T02:32:21;20.50;99.90
10155;DHT22;5118;48.570;7.916;2022-09-14T02:34:57;20.50;99.90
10155;DHT22;5118;48.570;7.916;2022-09-14T02:37:36;20.40;99.90
10155;DHT22;5118;48.570;7.916;2022-09-14T02:40:12;20.40;99.90
10155;DHT22;5118;48.570;7.916;2022-09-14T02:42:57;20.40;99.90
10155;DHT22;5118;48.570;7.916;2022-09-14T02:45:30;20.30;99.90
10155;DHT22;5118;48.570;7.916;2022-09-14T02:48:06;20.30;99.90
10155;DHT22;5118;48.570;7.916;2022-09-14T02:50:42;20.30;99.90
10155;DHT22;5118;48.570;7.916;2022-09-14T02:53:16;20.30;99.90
10155;DHT22;5118;48.570;7.916;2022-09-14T02:55:48;20.30;99.90
10155;DHT22;5118;48.570;7.916;2022-09-14T02:58:18;20.30;99.90
10155;DHT22;5118;48.570;7.916;2022-09-14T03:00:49;20.30;99.90
10155;DHT22;5118;48.570;7.916;2022-09-14T03:03:19;20.30;99.90
10155;DHT22;5118;48.570;7.916;2022-09-14T03:05:48;20.30;99.90
10155;DHT22;5118;48.570;7.916;2022-09-14T03:08:16;20.30;99.90
10155;DHT22;5118;48.570;7.916;2022-09-14T03:10:44;20.30;99.90
10155;DHT22;5118;48.570;7.916;2022-09-14T03:13:12;20.30;99.90
10155;DHT22;5118;48.570;7.916;2022-09-14T03:15:40;20.30;99.90
10155;DHT22;5118;48.570;7.916;2022-09-14T03:18:09;20.30;99.90
10155;DHT22;5118;48.570;7.916;2022-09-14T03:20:42;20.20;99.90
10155;DHT22;5118;48.570;7.916;2022-09-14T03:23:11;20.20;99.90
10155;DHT22;5118;48.570;7.916;2022-09-14T03:25:41;20.20;99.90
10155;DHT22;5118;48.570;7.916;2022-09-14T03:28:11;20.20;99.90
10155;DHT22;5118;48.570;7.916;2022-09-14T03:30:39;20.20;99.90
10155;DHT22;5118;48.570;7.916;2022-09-14T03:33:09;20.30;99.90
10155;DHT22;5118;48.570;7.916;2022-09-14T03:35:37;20.30;99.90
10155;DHT22;5118;48.570;7.916;2022-09-14T03:38:07;20.30;99.90
10155;DHT22;5118;48.570;7.916;2022-09-14T03:40:35;20.30;99.90
10155;DHT22;5118;48.570;7.916;2022-09-14T03:43:03;20.30;99.90
10155;DHT22;5118;48.570;7.916;2022-09-14T03:45:32;20.30;99.90
10155;DHT22;5118;48.570;7.916;2022-09-14T03:48:00;20.40;99.90
10155;DHT22;5118;48.570;7.916;2022-09-14T03:50:28;20.50;99.90
10155;DHT22;5118;48.570;7.916;2022-09-14T03:52:57;20.50;99.90
10155;DHT22;5118;48.570;7.916;2022-09-14T03:55:26;20.60;99.90
10155;DHT22;5118;48.570;7.916;2022-09-14T03:57:55;20.60;99.90
10155;DHT22;5118;48.570;7.916;2022-09-14T04:00:23;20.60;99.90
10155;DHT22;5118;48.570;7.916;2022-09-14T04:02:52;20.60;99.90
10155;DHT22;5118;48.570;7.916;2022-09-14T04:05:20;20.70;99.90
10155;DHT22;5118;48.570;7.916;2022-09-14T04:07:48;20.60;99.90
10155;DHT22;5118;48.570;7.916;2022-09-14T04:10:17;20.70;99.90
10155;DHT22;5118;48.570;7.916;2022-09-14T04:12:46;20.70;99.90
10155;DHT22;5118;48.570;7.916;2022-09-14T04:15:14;20.70;99.90
10155;DHT22;5118;48.570;7.916;2022-09-14T04:17:43;20.80;99.90
10155;DHT22;5118;48.570;7.916;2022-09-14T04:20:11;20.80;99.90
10155;DHT22;5118;48.570;7.916;2022-09-14T04:22:39;20.80;99.90
10155;DHT22;5118;48.570;7.916;2022-09-14T04:25:07;20.90;99.90
10155;DHT22;5118;48.570;7.916;2022-09-14T04:27:36;20.90;99.90
10155;DHT22;5118;48.570;7.916;2022-09-14T04:30:06;20.90;99.90
10155;DHT22;5118;48.570;7.916;2022-09-14T04:32:35;20.90;99.90
10155;DHT22;5118;48.570;7.916;2022-09-14T04:35:03;20.90;99.90
10155;DHT22;5118;48.570;7.916;2022-09-14T04:37:32;20.80;99.90
10155;DHT22;5118;48.570;7.916;2022-09-14T04:40:00;20.80;99.90
10155;DHT22;5118;48.570;7.916;2022-09-14T04:42:29;20.90;99.90
10155;DHT22;5118;48.570;7.916;2022-09-14T04:44:58;20.80;99.90
10155;DHT22;5118;48.570;7.916;2022-09-14T04:47:28;20.80;99.90
10155;DHT22;5118;48.570;7.916;2022-09-14T04:49:56;20.80;99.90
10155;DHT22;5118;48.570;7.916;2022-09-14T04:52:25;20.80;99.90
10155;DHT22;5118;48.570;7.916;2022-09-14T04:54:53;20.80;99.90
10155;DHT22;5118;48.570;7.916;2022-09-14T04:57:21;20.80;99.90
10155;DHT22;5118;48.570;7.916;2022-09-14T04:59:49;20.80;99.90
10155;DHT22;5118;48.570;7.916;2022-09-14T05:02:18;20.80;99.90
10155;DHT22;5118;48.570;7.916;2022-09-14T05:04:47;20.80;99.90
10155;DHT22;5118;48.570;7.916;2022-09-14T05:07:15;20.70;99.90
10155;DHT22;5118;48.570;7.916;2022-09-14T05:09:43;20.70;99.90
10155;DHT22;5118;48.570;7.916;2022-09-14T05:12:12;20.70;99.90
10155;DHT22;5118;48.570;7.916;2022-09-14T05:14:40;20.70;99.90
10155;DHT22;5118;48.570;7.916;2022-09-14T05:17:08;20.70;99.90
10155;DHT22;5118;48.570;7.916;2022-09-14T05:19:36;20.70;99.90
10155;DHT22;5118;48.570;7.916;2022-09-14T05:22:06;20.60;99.90
10155;DHT22;5118;48.570;7.916;2022-09-14T05:24:34;20.60;99.90
10155;DHT22;5118;48.570;7.916;2022-09-14T05:27:02;20.60;99.90
10155;DHT22;5118;48.570;7.916;2022-09-14T05:29:31;20.60;99.90
10155;DHT22;5118;48.570;7.916;2022-09-14T05:31:59;20.60;99.90
10155;DHT22;5118;48.570;7.916;2022-09-14T05:34:27;20.60;99.90
10155;DHT22;5118;48.570;7.916;2022-09-14T05:36:55;20.70;99.90
10155;DHT22;5118;48.570;7.916;2022-09-14T05:39:25;20.70;99.90
10155;DHT22;5118;48.570;7.916;2022-09-14T05:41:53;20.80;99.90
10155;DHT22;5118;48.570;7.916;2022-09-14T05:44:21;20.90;99.90
10155;DHT22;5118;48.570;7.916;2022-09-14T05:46:50;20.90;99.90
10155;DHT22;5118;48.570;7.916;2022-09-14T05:49:18;20.90;99.90
10155;DHT22;5118;48.570;7.916;2022-09-14T05:51:46;20.90;99.90
10155;DHT22;5118;48.570;7.916;2022-09-14T05:54:14;21.00;99.90
10155;DHT22;5118;48.570;7.916;2022-09-14T05:56:44;21.00;99.90
10155;DHT22;5118;48.570;7.916;2022-09-14T05:59:12;21.00;99.90
10155;DHT22;5118;48.570;7.916;2022-09-14T06:01:40;21.00;99.90
10155;DHT22;5118;48.570;7.916;2022-09-14T06:04:09;21.00;99.90
10155;DHT22;5118;48.570;7.916;2022-09-14T06:06:38;21.00;99.90
10155;DHT22;5118;48.570;7.916;2022-09-14T06:09:06;21.10;99.90
10155;DHT22;5118;48.570;7.916;2022-09-14T06:11:34;21.10;99.90
10155;DHT22;5118;48.570;7.916;2022-09-14T06:14:05;21.20;99.90
10155;DHT22;5118;48.570;7.916;2022-09-14T06:16:33;21.30;99.90
10155;DHT22;5118;48.570;7.916;2022-09-14T06:19:02;21.40;99.90
10155;DHT22;5118;48.570;7.916;2022-09-14T06:21:33;21.40;99.90
10155;DHT22;5118;48.570;7.916;2022-09-14T06:24:01;21.50;99.90
10155;DHT22;5118;48.570;7.916;2022-09-14T06:26:30;21.60;99.90
10155;DHT22;5118;48.570;7.916;2022-09-14T06:28:58;21.60;99.90
10155;DHT22;5118;48.570;7.916;2022-09-14T06:31:29;21.70;99.90
10155;DHT22;5118;48.570;7.916;2022-09-14T06:33:58;21.70;99.90
10155;DHT22;5118;48.570;7.916;2022-09-14T06:36:27;21.60;99.90
10155;DHT22;5118;48.570;7.916;2022-09-14T06:38:58;21.60;99.90
10155;DHT22;5118;48.570;7.916;2022-09-14T06:41:27;21.50;99.90
10155;DHT22;5118;48.570;7.916;2022-09-14T06:43:57;21.50;99.90
10155;DHT22;5118;48.570;7.916;2022-09-14T06:46:30;21.50;99.90
10155;DHT22;5118;48.570;7.916;2022-09-14T06:49:02;21.60;99.90
10155;DHT22;5118;48.570;7.916;2022-09-14T06:51:32;21.70;99.90
10155;DHT22;5118;48.570;7.916;2022-09-14T06:54:01;21.70;99.90
10155;DHT22;5118;48.570;7.916;2022-09-14T06:56:31;21.80;99.90
10155;DHT22;5118;48.570;7.916;2022-09-14T06:58:59;21.90;99.90
10155;DHT22;5118;48.570;7.916;2022-09-14T07:01:27;22.00;99.90
10155;DHT22;5118;48.570;7.916;2022-09-14T07:03:58;22.10;99.90
10155;DHT22;5118;48.570;7.916;2022-09-14T07:06:28;22.20;99.90
10155;DHT22;5118;48.570;7.916;2022-09-14T07:08:57;22.30;99.90
10155;DHT22;5118;48.570;7.916;2022-09-14T07:11:26;22.50;99.90
10155;DHT22;5118;48.570;7.916;2022-09-14T07:13:55;22.60;99.90
10155;DHT22;5118;48.570;7.916;2022-09-14T07:16:25;22.70;99.90
10155;DHT22;5118;48.570;7.916;2022-09-14T07:18:53;22.90;99.90
10155;DHT22;5118;48.570;7.916;2022-09-14T07:21:24;22.90;99.90
10155;DHT22;5118;48.570;7.916;2022-09-14T07:23:52;23.00;99.90
10155;DHT22;5118;48.570;7.916;2022-09-14T07:26:23;23.10;99.90
10155;DHT22;5118;48.570;7.916;2022-09-14T07:28:53;23.20;99.90
10155;DHT22;5118;48.570;7.916;2022-09-14T07:31:23;23.20;99.90
10155;DHT22;5118;48.570;7.916;2022-09-14T07:33:53;23.40;99.90
10155;DHT22;5118;48.570;7.916;2022-09-14T07:36:23;23.50;99.90
10155;DHT22;5118;48.570;7.916;2022-09-14T07:38:52;23.60;99.90
10155;DHT22;5118;48.570;7.916;2022-09-14T07:41:21;23.70;99.90
10155;DHT22;5118;48.570;7.916;2022-09-14T07:43:51;23.80;99.90
10155;DHT22;5118;48.570;7.916;2022-09-14T07:46:20;23.80;99.90
10155;DHT22;5118;48.570;7.916;2022-09-14T07:48:52;23.90;99.90
10155;DHT22;5118;48.570;7.916;2022-09-14T07:51:21;23.90;99.90
10155;DHT22;5118;48.570;7.916;2022-09-14T07:53:51;24.00;99.90
10155;DHT22;5118;48.570;7.916;2022-09-14T07:56:20;24.00;99.90
10155;DHT22;5118;48.570;7.916;2022-09-14T07:58:52;24.10;99.90
10155;DHT22;5118;48.570;7.916;2022-09-14T08:01:41;24.10;99.90
10155;DHT22;5118;48.570;7.916;2022-09-14T08:04:10;24.00;99.90
10155;DHT22;5118;48.570;7.916;2022-09-14T08:06:38;24.10;99.90
10155;DHT22;5118;48.570;7.916;2022-09-14T08:09:08;24.10;99.90
10155;DHT22;5118;48.570;7.916;2022-09-14T08:11:37;24.10;99.90
10155;DHT22;5118;48.570;7.916;2022-09-14T08:14:08;24.10;99.90
10155;DHT22;5118;48.570;7.916;2022-09-14T08:16:37;24.20;99.90
10155;DHT22;5118;48.570;7.916;2022-09-14T08:19:11;24.30;99.90
10155;DHT22;5118;48.570;7.916;2022-09-14T08:21:40;24.40;99.90
10155;DHT22;5118;48.570;7.916;2022-09-14T08:24:16;24.50;99.90
10155;DHT22;5118;48.570;7.916;2022-09-14T08:26:44;24.70;99.90
10155;DHT22;5118;48.570;7.916;2022-09-14T08:29:13;24.70;99.90
10155;DHT22;5118;48.570;7.916;2022-09-14T08:31:42;24.80;99.90
10155;DHT22;5118;48.570;7.916;2022-09-14T08:34:12;24.90;99.90
10155;DHT22;5118;48.570;7.916;2022-09-14T08:36:42;25.00;99.90
10155;DHT22;5118;48.570;7.916;2022-09-14T08:39:12;25.10;99.90
10155;DHT22;5118;48.570;7.916;2022-09-14T08:41:48;25.10;99.90
10155;DHT22;5118;48.570;7.916;2022-09-14T08:44:20;25.20;99.90
10155;DHT22;5118;48.570;7.916;2022-09-14T08:46:52;25.30;99.90
10155;DHT22;5118;48.570;7.916;2022-09-14T08:49:38;25.40;99.90
10155;DHT22;5118;48.570;7.916;2022-09-14T08:52:13;25.40;99.90
10155;DHT22;5118;48.570;7.916;2022-09-14T08:54:51;25.50;99.90
10155;DHT22;5118;48.570;7.916;2022-09-14T08:57:26;25.40;99.90
10155;DHT22;5118;48.570;7.916;2022-09-14T09:00:06;25.50;99.90
10155;DHT22;5118;48.570;7.916;2022-09-14T09:05:37;25.70;99.90
10155;DHT22;5118;48.570;7.916;2022-09-14T09:08:16;25.80;99.90
10155;DHT22;5118;48.570;7.916;2022-09-14T09:10:45;25.90;99.90
10155;DHT22;5118;48.570;7.916;2022-09-14T09:13:18;26.00;99.90
10155;DHT22;5118;48.570;7.916;2022-09-14T09:15:49;26.20;99.90
10155;DHT22;5118;48.570;7.916;2022-09-14T09:18:21;26.30;99.90
10155;DHT22;5118;48.570;7.916;2022-09-14T09:20:55;26.30;99.90
10155;DHT22;5118;48.570;7.916;2022-09-14T09:23:27;26.40;99.90
10155;DHT22;5118;48.570;7.916;2022-09-14T09:26:00;26.40;99.90
10155;DHT22;5118;48.570;7.916;2022-09-14T09:28:32;26.50;99.90
10155;DHT22;5118;48.570;7.916;2022-09-14T09:31:03;26.60;99.90
10155;DHT22;5118;48.570;7.916;2022-09-14T09:34:05;26.70;99.90
10155;DHT22;5118;48.570;7.916;2022-09-14T09:36:35;26.90;99.90
10155;DHT22;5118;48.570;7.916;2022-09-14T09:39:06;26.90;99.90
10155;DHT22;5118;48.570;7.916;2022-09-14T09:41:42;27.00;99.90
10155;DHT22;5118;48.570;7.916;2022-09-14T09:44:13;27.20;99.90
10155;DHT22;5118;48.570;7.916;2022-09-14T09:46:45;27.30;99.90
10155;DHT22;5118;48.570;7.916;2022-09-14T09:49:18;27.40;99.90
10155;DHT22;5118;48.570;7.916;2022-09-14T09:51:49;27.60;99.90
10155;DHT22;5118;48.570;7.916;2022-09-14T09:54:26;27.70;99.90
10155;DHT22;5118;48.570;7.916;2022-09-14T09:56:56;27.80;99.90
10155;DHT22;5118;48.570;7.916;2022-09-14T09:59:32;27.90;99.90
10155;DHT22;5118;48.570;7.916;2022-09-14T10:02:23;28.00;99.90
10155;DHT22;5118;48.570;7.916;2022-09-14T10:04:59;28.20;99.90
10155;DHT22;5118;48.570;7.916;2022-09-14T10:07:31;28.30;99.90
10155;DHT22;5118;48.570;7.916;2022-09-14T10:10:03;28.50;99.90
10155;DHT22;5118;48.570;7.916;2022-09-14T10:12:32;28.60;99.90
10155;DHT22;5118;48.570;7.916;2022-09-14T10:15:13;28.80;99.90
10155;DHT22;5118;48.570;7.916;2022-09-14T10:18:04;28.90;99.90
10155;DHT22;5118;48.570;7.916;2022-09-14T10:20:34;28.90;99.90
10155;DHT22;5118;48.570;7.916;2022-09-14T10:23:23;29.00;99.90
10155;DHT22;5118;48.570;7.916;2022-09-14T10:26:17;29.10;99.90
10155;DHT22;5118;48.570;7.916;2022-09-14T10:28:47;29.10;99.90
10155;DHT22;5118;48.570;7.916;2022-09-14T10:31:24;29.00;99.90
10155;DHT22;5118;48.570;7.916;2022-09-14T10:33:55;28.90;99.90
10155;DHT22;5118;48.570;7.916;2022-09-14T10:36:25;28.90;99.90
10155;DHT22;5118;48.570;7.916;2022-09-14T10:38:59;28.90;99.90
10155;DHT22;5118;48.570;7.916;2022-09-14T10:41:37;28.90;99.90
10155;DHT22;5118;48.570;7.916;2022-09-14T10:44:26;29.00;99.90
10155;DHT22;5118;48.570;7.916;2022-09-14T10:47:13;29.30;99.90
10155;DHT22;5118;48.570;7.916;2022-09-14T10:49:54;29.60;99.90
10155;DHT22;5118;48.570;7.916;2022-09-14T10:52:34;29.70;99.90
10155;DHT22;5118;48.570;7.916;2022-09-14T10:55:22;29.70;99.90
10155;DHT22;5118;48.570;7.916;2022-09-14T10:58:06;29.70;99.90
10155;DHT22;5118;48.570;7.916;2022-09-14T11:00:52;29.80;99.90
10155;DHT22;5118;48.570;7.916;2022-09-14T11:03:33;29.90;99.90
10155;DHT22;5118;48.570;7.916;2022-09-14T11:06:10;29.80;99.90
10155;DHT22;5118;48.570;7.916;2022-09-14T11:08:44;29.70;99.90
10155;DHT22;5118;48.570;7.916;2022-09-14T11:11:22;29.40;99.90
10155;DHT22;5118;48.570;7.916;2022-09-14T11:14:13;29.20;99.90
10155;DHT22;5118;48.570;7.916;2022-09-14T11:17:04;29.00;99.90
10155;DHT22;5118;48.570;7.916;2022-09-14T11:19:42;28.70;99.90
10155;DHT22;5118;48.570;7.916;2022-09-14T11:22:16;28.40;99.90
10155;DHT22;5118;48.570;7.916;2022-09-14T11:24:52;28.20;99.90
10155;DHT22;5118;48.570;7.916;2022-09-14T11:27:25;28.00;99.90
10155;DHT22;5118;48.570;7.916;2022-09-14T11:29:58;27.80;99.90
10155;DHT22;5118;48.570;7.916;2022-09-14T11:32:31;27.60;99.90
10155;DHT22;5118;48.570;7.916;2022-09-14T11:35:03;27.40;99.90
10155;DHT22;5118;48.570;7.916;2022-09-14T11:37:40;27.20;99.90
10155;DHT22;5118;48.570;7.916;2022-09-14T11:40:16;26.60;99.90
10155;DHT22;5118;48.570;7.916;2022-09-14T11:42:51;25.60;99.90
10155;DHT22;5118;48.570;7.916;2022-09-14T11:45:26;24.50;99.90
10155;DHT22;5118;48.570;7.916;2022-09-14T11:48:00;23.60;99.90
10155;DHT22;5118;48.570;7.916;2022-09-14T11:50:57;23.00;99.90
10155;DHT22;5118;48.570;7.916;2022-09-14T11:53:30;22.50;99.90
10155;DHT22;5118;48.570;7.916;2022-09-14T11:55:59;22.30;99.90
10155;DHT22;5118;48.570;7.916;2022-09-14T11:58:28;22.00;99.90
10155;DHT22;5118;48.570;7.916;2022-09-14T12:01:03;21.80;99.90
10155;DHT22;5118;48.570;7.916;2022-09-14T12:03:51;21.50;99.90
10155;DHT22;5118;48.570;7.916;2022-09-14T12:06:47;21.40;99.90
10155;DHT22;5118;48.570;7.916;2022-09-14T12:09:42;21.30;99.90
10155;DHT22;5118;48.570;7.916;2022-09-14T12:12:29;21.10;99.90
10155;DHT22;5118;48.570;7.916;2022-09-14T12:14:59;20.90;99.90
10155;DHT22;5118;48.570;7.916;2022-09-14T12:17:31;20.70;99.90
10155;DHT22;5118;48.570;7.916;2022-09-14T12:20:39;20.70;99.90
10155;DHT22;5118;48.570;7.916;2022-09-14T12:23:18;20.80;99.90
10155;DHT22;5118;48.570;7.916;2022-09-14T12:26:00;20.90;99.90
10155;DHT22;5118;48.570;7.916;2022-09-14T12:28:39;21.10;99.90
10155;DHT22;5118;48.570;7.916;2022-09-14T12:31:29;21.20;99.90
10155;DHT22;5118;48.570;7.916;2022-09-14T12:34:15;21.30;99.90
10155;DHT22;5118;48.570;7.916;2022-09-14T12:42:56;21.40;99.90
10155;DHT22;5118;48.570;7.916;2022-09-14T12:45:49;21.40;99.90
10155;DHT22;5118;48.570;7.916;2022-09-14T12:48:55;21.40;99.90
10155;DHT22;5118;48.570;7.916;2022-09-14T12:51:37;21.40;99.90
10155;DHT22;5118;48.570;7.916;2022-09-14T12:54:23;21.40;99.90
10155;DHT22;5118;48.570;7.916;2022-09-14T12:57:01;21.40;99.90
10155;DHT22;5118;48.570;7.916;2022-09-14T12:59:43;21.50;99.90
10155;DHT22;5118;48.570;7.916;2022-09-14T13:05:18;21.70;99.90
10155;DHT22;5118;48.570;7.916;2022-09-14T13:07:50;21.80;99.90
10155;DHT22;5118;48.570;7.916;2022-09-14T13:10:23;21.90;99.90
10155;DHT22;5118;48.570;7.916;2022-09-14T13:12:52;21.90;99.90
10155;DHT22;5118;48.570;7.916;2022-09-14T13:15:25;21.90;99.90
10155;DHT22;5118;48.570;7.916;2022-09-14T13:17:56;22.00;99.90
10155;DHT22;5118;48.570;7.916;2022-09-14T13:20:24;21.90;99.90
10155;DHT22;5118;48.570;7.916;2022-09-14T13:22:53;21.90;99.90
10155;DHT22;5118;48.570;7.916;2022-09-14T13:25:27;21.80;99.90
10155;DHT22;5118;48.570;7.916;2022-09-14T13:27:59;21.80;99.90
10155;DHT22;5118;48.570;7.916;2022-09-14T13:30:30;21.70;99.90
10155;DHT22;5118;48.570;7.916;2022-09-14T13:32:59;21.70;99.90
10155;DHT22;5118;48.570;7.916;2022-09-14T13:35:31;21.70;99.90
10155;DHT22;5118;48.570;7.916;2022-09-14T13:38:05;21.80;99.90
10155;DHT22;5118;48.570;7.916;2022-09-14T13:40:34;21.80;99.90
10155;DHT22;5118;48.570;7.916;2022-09-14T13:43:03;21.80;99.90
10155;DHT22;5118;48.570;7.916;2022-09-14T13:45:32;21.80;99.90
10155;DHT22;5118;48.570;7.916;2022-09-14T13:48:04;21.90;99.90
10155;DHT22;5118;48.570;7.916;2022-09-14T13:50:33;21.90;99.90
10155;DHT22;5118;48.570;7.916;2022-09-14T13:53:01;21.90;99.90
10155;DHT22;5118;48.570;7.916;2022-09-14T13:55:43;21.80;99.90
10155;DHT22;5118;48.570;7.916;2022-09-14T13:58:20;21.70;99.90
10155;DHT22;5118;48.570;7.916;2022-09-14T14:00:56;21.60;99.90
10155;DHT22;5118;48.570;7.916;2022-09-14T14:03:29;21.50;99.90
10155;DHT22;5118;48.570;7.916;2022-09-14T14:05:57;21.40;99.90
10155;DHT22;5118;48.570;7.916;2022-09-14T14:08:32;21.20;99.90
10155;DHT22;5118;48.570;7.916;2022-09-14T14:11:03;21.20;99.90
10155;DHT22;5118;48.570;7.916;2022-09-14T14:13:34;21.10;99.90
10155;DHT22;5118;48.570;7.916;2022-09-14T14:16:15;21.10;99.90
10155;DHT22;5118;48.570;7.916;2022-09-14T14:18:50;21.10;99.90
10155;DHT22;5118;48.570;7.916;2022-09-14T14:21:30;21.10;99.90
10155;DHT22;5118;48.570;7.916;2022-09-14T14:24:24;21.10;99.90
10155;DHT22;5118;48.570;7.916;2022-09-14T14:26:54;21.30;99.90
10155;DHT22;5118;48.570;7.916;2022-09-14T14:29:24;21.40;99.90
10155;DHT22;5118;48.570;7.916;2022-09-14T14:31:55;21.70;99.90
10155;DHT22;5118;48.570;7.916;2022-09-14T14:34:26;22.00;99.90
10155;DHT22;5118;48.570;7.916;2022-09-14T14:36:55;22.40;99.90
10155;DHT22;5118;48.570;7.916;2022-09-14T14:39:24;22.70;99.90
10155;DHT22;5118;48.570;7.916;2022-09-14T14:41:52;22.90;99.90
10155;DHT22;5118;48.570;7.916;2022-09-14T14:44:22;23.00;99.90
10155;DHT22;5118;48.570;7.916;2022-09-14T14:46:51;23.10;99.90
10155;DHT22;5118;48.570;7.916;2022-09-14T14:49:21;23.10;99.90
10155;DHT22;5118;48.570;7.916;2022-09-14T14:51:49;23.10;99.90
10155;DHT22;5118;48.570;7.916;2022-09-14T14:54:18;23.10;99.90
10155;DHT22;5118;48.570;7.916;2022-09-14T14:56:47;23.30;99.90
10155;DHT22;5118;48.570;7.916;2022-09-14T14:59:25;23.30;99.90
10155;DHT22;5118;48.570;7.916;2022-09-14T15:01:53;23.30;99.90
10155;DHT22;5118;48.570;7.916;2022-09-14T15:04:23;23.40;99.90
10155;DHT22;5118;48.570;7.916;2022-09-14T15:06:52;23.40;99.90
10155;DHT22;5118;48.570;7.916;2022-09-14T15:09:22;23.40;99.90
10155;DHT22;5118;48.570;7.916;2022-09-14T15:11:51;23.40;99.90
10155;DHT22;5118;48.570;7.916;2022-09-14T15:14:22;23.40;99.90
10155;DHT22;5118;48.570;7.916;2022-09-14T15:16:53;23.40;99.90
10155;DHT22;5118;48.570;7.916;2022-09-14T15:19:27;23.30;99.90
10155;DHT22;5118;48.570;7.916;2022-09-14T15:21:55;23.30;99.90
10155;DHT22;5118;48.570;7.916;2022-09-14T15:24:28;23.30;99.90
10155;DHT22;5118;48.570;7.916;2022-09-14T15:26:56;23.30;99.90
10155;DHT22;5118;48.570;7.916;2022-09-14T15:29:25;23.40;99.90
10155;DHT22;5118;48.570;7.916;2022-09-14T15:31:53;23.60;99.90
10155;DHT22;5118;48.570;7.916;2022-09-14T15:34:21;23.80;99.90
10155;DHT22;5118;48.570;7.916;2022-09-14T15:36:52;23.90;99.90
10155;DHT22;5118;48.570;7.916;2022-09-14T15:39:23;24.00;99.90
10155;DHT22;5118;48.570;7.916;2022-09-14T15:41:52;24.20;99.90
10155;DHT22;5118;48.570;7.916;2022-09-14T15:44:21;24.30;99.90
10155;DHT22;5118;48.570;7.916;2022-09-14T15:46:49;24.40;99.90
10155;DHT22;5118;48.570;7.916;2022-09-14T15:49:20;24.40;99.90
10155;DHT22;5118;48.570;7.916;2022-09-14T15:51:51;24.40;99.90
10155;DHT22;5118;48.570;7.916;2022-09-14T15:54:21;24.70;99.90
10155;DHT22;5118;48.570;7.916;2022-09-14T15:56:53;25.60;99.90
10155;DHT22;5118;48.570;7.916;2022-09-14T15:59:21;26.90;99.90
10155;DHT22;5118;48.570;7.916;2022-09-14T16:01:50;28.00;99.90
10155;DHT22;5118;48.570;7.916;2022-09-14T16:04:18;28.80;99.90
10155;DHT22;5118;48.570;7.916;2022-09-14T16:06:47;29.40;99.90
10155;DHT22;5118;48.570;7.916;2022-09-14T16:09:17;30.10;99.90
10155;DHT22;5118;48.570;7.916;2022-09-14T16:11:48;30.60;99.90
10155;DHT22;5118;48.570;7.916;2022-09-14T16:14:16;30.50;99.90
10155;DHT22;5118;48.570;7.916;2022-09-14T16:16:45;29.70;99.90
10155;DHT22;5118;48.570;7.916;2022-09-14T16:19:13;28.70;99.90
10155;DHT22;5118;48.570;7.916;2022-09-14T16:21:42;27.70;99.90
10155;DHT22;5118;48.570;7.916;2022-09-14T16:24:12;26.90;99.90
10155;DHT22;5118;48.570;7.916;2022-09-14T16:26:42;26.20;99.90
10155;DHT22;5118;48.570;7.916;2022-09-14T16:29:13;25.60;99.90
10155;DHT22;5118;48.570;7.916;2022-09-14T16:31:43;25.10;99.90